Station info - map view · info · telemetry · weather · raw · status · beacons · messages · bulletins · browse · moving · my account
Callsign, ship name or locator: Clear       
It is possible to search using wildcards (*?) after a prefix. Example: OH*
APRS station KE0RJV-9 - show graphs
Map loading...
Comment: 145.310MHz Toff -000 CO4x4R&R
Mic-E message: Off duty
Location: 39°42.13' N 105°08.07' W - locator DM79KQ38UM - show map - static map
2.8 miles West bearing 266° from Lakewood, Jefferson County, Colorado, United States [?]
3.1 miles Southeast bearing 132° from West Pleasant View, Jefferson County, Colorado, United States
8.4 miles West bearing 252° from Denver, Denver County, Colorado, United States
62.2 miles North bearing 344° from Colorado Springs, El Paso County, Colorado, United States
Last position: 2019-11-08 22:12:22 EST (6d 8h2m ago)
2019-11-08 20:12:22 MST local time at Lakewood, United States [?]
Altitude: 5814 ft
Course: 221°
Speed: 0 MPH
Device: Yaesu: FTM-400DR (rig)
Last path: KE0RJV-9>SYTRQS via WIDE1-1,WIDE2-1,qAR,N4YRE (good)
Positions stored: 14990
Stations near current position of KE0RJV-9 - show more
callsign distance last heard - EST      callsign distance last heard - EST
KE0QFG-90.9 miles 42°2019-11-13 14:54:03 KE0OIC-91.0 miles 284°2019-11-11 06:24:40
KE5SO1.2 miles 154°2019-10-29 09:18:21 DW12611.5 miles 99°2019-11-15 06:15:09
CW66331.9 miles 314°2019-11-15 06:05:16 K0RCW2.0 miles 97°2019-11-15 06:00:43
N1RSQ-92.0 miles 36°2019-11-14 23:44:58 K0RCW-92.0 miles 97°2019-10-26 10:29:40
K0LAI-92.1 miles 204°2019-11-14 22:06:12 DW09672.1 miles 329°2019-11-15 06:12:02
CW89262.2 miles 202°2019-11-15 06:10:48 WX5AB-92.2 miles 310°2019-10-29 09:30:00
WA0DS2.8 miles 28°2019-10-26 12:20:08 W0ZXR B2.8 miles 95°2019-11-15 06:06:34
W0ZXR-B2.8 miles 95°2019-11-15 06:06:44 KE0SUM2.8 miles 117°2019-10-22 22:20:38
KE0SEP-92.9 miles 78°2019-10-19 21:19:25 KN0TTS-93.1 miles 136°2019-11-14 15:08:39
K9DPW3.3 miles 341°2019-11-10 17:03:14 WB4HZA3.4 miles 132°2019-10-29 09:37:22
Stations which heard KE0RJV-9 directly on radio –
callsign pkts first heard - EST last heard longest (tx => rx) longest at - EST
WERNER 143 2019-11-01 21:59:29 2019-11-07 21:25:11 DM79PP > DN60PK 119.8 miles 298° 2019-11-07 21:25:11
VAILMT 5 2019-11-01 21:54:05 2019-11-02 16:05:17 DM79AQ > DM69TO 21.6 miles 257° 2019-11-02 16:05:17
KC0D 12 2019-11-01 20:05:21 2019-11-08 08:58:02 DM79HR > DM79PI 45.1 miles 122° 2019-11-01 21:21:43
ALMGRE 18 2019-11-01 19:52:51 2019-11-08 09:23:00 DM79PR > DM78MS 68.3 miles 193° 2019-11-08 09:23:00
CLIMAX 33 2019-11-01 22:02:46 2019-11-02 15:58:03 DM69XP > DM69VJ 19.2 miles 205° 2019-11-02 10:04:40
SWANMT 77 2019-11-01 21:54:16 2019-11-02 16:00:25 DM79AQ > DM69XO 8.0 miles 217° 2019-11-01 21:55:39
DTSERO 20 2019-11-01 22:05:26 2019-11-02 15:02:07 DM79AO > DM69JP 65.3 miles 274° 2019-11-02 15:02:07
QUAIL 24 2019-11-01 22:00:30 2019-11-02 05:39:51 DM69XP > DM69TA 46.1 miles 202° 2019-11-01 22:02:01
BVILLE 187 2019-11-01 19:23:07 2019-11-08 19:31:54 DM79TS > DM79CQ 73.6 miles 265° 2019-11-06 19:09:23
K0XK-5 84 2019-11-01 20:03:25 2019-11-08 08:39:07 DM79KQ > DM79OO 18.6 miles 110° 2019-11-07 08:03:20
N4YRE 222 2019-11-01 19:19:28 2019-11-08 22:12:22 DM79IQ > DM79NQ 25.0 miles 95° 2019-11-01 21:16:36
ERIDGE 50 2019-11-01 21:56:54 2019-11-02 15:59:12 DM79AO > DM69SU 29.7 miles 302° 2019-11-02 15:19:42
K0MTN-10 7 2019-11-01 20:03:00 2019-11-01 20:27:55 DM79ON > DM79KO 20.5 miles 281° 2019-11-01 20:03:00
AC0XW-9 1 2019-11-08 18:21:46 2019-11-08 18:21:46 DM79MS > DM79MS 3.7 miles 253° 2019-11-08 18:21:46
PANDO 4 2019-11-02 15:27:07 2019-11-02 16:04:02 DM79AQ > DM69TJ 27.9 miles 228° 2019-11-02 16:04:02
W0ARP 10 2019-11-01 19:28:28 2019-11-07 21:18:06 DM79JQ > DM79QL 32.0 miles 114° 2019-11-01 20:32:04
TABNSH 5 2019-11-01 19:17:51 2019-11-01 23:41:27 DM79PR > DN70CA 60.9 miles 288° 2019-11-01 19:27:44
WD4IXD-10 7 2019-11-01 20:18:55 2019-11-06 19:49:39 DM79GR > DM79LM 27.0 miles 125° 2019-11-01 21:22:58
K5RHD-10 456 2019-11-01 19:18:10 2019-11-08 19:34:31 DM79PN > DM79KU 26.6 miles 314° 2019-11-01 20:01:35
WALDEN 7 2019-11-01 22:02:58 2019-11-02 09:29:18 DM69XP > DN60XL 58.1 miles 0° 2019-11-02 08:34:17
K0NTS-5 67 2019-11-01 19:16:43 2019-11-08 19:27:34 DM79PP > DM79GR 38.5 miles 278° 2019-11-01 19:34:30
AI0J-10 33 2019-11-05 23:20:26 2019-11-08 19:23:06 DM79OQ > DM79HV 35.5 miles 293° 2019-11-05 23:20:26
W0ARP-3 148 2019-11-01 19:27:40 2019-11-08 19:44:36 DM79GR > DM79QL 45.9 miles 113° 2019-11-01 21:23:29
N0AUX-1 11 2019-11-01 19:26:23 2019-11-08 19:24:21 DM79OS > DM79KG 38.8 miles 210° 2019-11-01 19:26:23
N6BA-10 3 2019-11-01 19:56:19 2019-11-01 20:04:14 DM79PP > DM79OI 20.6 miles 190° 2019-11-01 19:56:19
WA0GEH-10 8 2019-11-06 21:48:07 2019-11-08 22:07:22 DM79KQ > DM79NP 15.3 miles 103° 2019-11-07 07:53:20
K0PRW-10 9 2019-11-06 19:30:28 2019-11-08 15:16:38 DM79PP > DM79JW 31.6 miles 313° 2019-11-08 06:41:21
KU0O-9 2 2019-11-06 18:15:27 2019-11-06 19:17:45 DM79MS > DM79JU 15.2 miles 293° 2019-11-06 19:17:45
W9CN-9 1 2019-11-01 20:33:57 2019-11-01 20:33:57 DM79JQ > DM79PL 29.0 miles 121° 2019-11-01 20:33:57
W0UPS-15 18 2019-11-01 19:44:24 2019-11-08 19:01:46 DM79PP > DN70JN 67.3 miles 339° 2019-11-01 19:55:48
NCFPD 4 2019-11-01 21:12:56 2019-11-08 01:46:54 DM79IR > DM79VK 60.6 miles 107° 2019-11-01 21:16:14

Only position packets which were originated by the station are shown here. The range statistics show some extra long hops, because some digipeaters do not correctly add themselves to the digipeater path. Please check the raw packets.
About this site
This page shows real-time information collected from the Automatic Position Reporting System Internet network (APRS-IS). APRS is used by amateur (ham) radio operators to transmit real-time position information, weather data, telemetry and messages over the radio. A vehicle equipped with a GPS receiver, a VHF transmitter or HF transceiver and a small computer device called a tracker transmits it's location, speed and course in a small data packet, which is then received by a nearby iGate receiving site which forwards the packet on the Internet. Systems connected to the Internet can send information on the APRS-IS without a radio transmitter, or collect and display information transmitted anywhere in the world.
User guide · FAQ · Blog · Discussion group · Linking to aprs.fi · AIS sites · Service status · Database statistics · Advertising on aprs.fi · Technical details · API · Change log · Planned changes · Credits and thanks · Terms Of Service · iPhone/iPad APRS